• Join FlightAware (Why Join?)
  • Login
  • US Flag 
07:13PM EDT


 

Airport Tracker/Info


-or-


 

Live Flight TrackerFlight Track Log ✈ QXE2633 ✈ 23-Oct-2013 ✈ KPDX - KSMF

Flight Track Log - Related Links

Times and Time Zones

All times are in EDT time to prevent confusion due to time zone crossing. See the QXE2633 flight status page for this flight to view local times or setup timezone preferences in your user account.

Time Position Orientation Groundspeed Altitude Reporting Facility
EDT Latitude Longitude Course Direction KTS MPH feet Rate Location/Type
06:44PM 45.0031 -122.5022 172° South  Level Estimated
06:45PM 44.9220 -122.4701 164° South  Level FlightAware Approximate
06:46PM 44.8383 -122.4571 164° South  Level Estimated
06:47PM 44.7547 -122.4441 170° South  Level Estimated
06:48PM 44.6731 -122.4148 166° South  Level FlightAware Approximate
06:49PM 44.5915 -122.3856 166° South  Level FlightAware Approximate
06:50PM 44.5099 -122.3565 166° South  Level FlightAware Approximate
06:51PM 44.4283 -122.3274 166° South  Level FlightAware Approximate
06:52PM 44.3467 -122.2984 166° South  Level FlightAware Approximate
06:53PM 44.2629 -122.2870 170° South  Level Estimated
06:54PM 44.1803 -122.2639 169° South  Level FlightAware Approximate
06:55PM 44.0978 -122.2409 169° South  Level FlightAware Approximate
06:56PM 44.0152 -122.2180 169° South  Level FlightAware Approximate
06:57PM 43.9326 -122.1951 169° South  Level FlightAware Approximate
06:58PM 43.8500 -122.1723 169° South  Level FlightAware Approximate
06:59PM 43.7675 -122.1496 169° South  Level FlightAware Approximate
07:00PM 43.6849 -122.1269 169° South  Level FlightAware Approximate
07:01PM 43.6023 -122.1043 169° South  Level FlightAware Approximate
07:02PM 43.5197 -122.0817 169° South  Level FlightAware Approximate
07:03PM 43.4371 -122.0593 169° South  Level FlightAware Approximate
07:04PM 43.3545 -122.0368 169° South  Level FlightAware Approximate
07:05PM 43.2719 -122.0145 169° South  Level FlightAware Approximate
07:06PM 43.1893 -121.9921 169° South  Level FlightAware Approximate
07:07PM 43.1067 -121.9699 169° South  Level FlightAware Approximate
07:08PM 43.0240 -121.9477 169° South  Level FlightAware Approximate
07:09PM 42.9414 -121.9256 169° South  Level FlightAware Approximate
07:10PM 42.8588 -121.9035 169° South  Level FlightAware Approximate
07:11PM 42.7761 -121.8815 169° South  Level FlightAware Approximate
07:12PM 42.6935 -121.8596 169° South  Level FlightAware Approximate
07:13PM 42.6094 -121.8536 180° South  Level Estimated
07:14PM 42.5254 -121.8456 176° South  Level FlightAware Approximate
07:15PM 42.4414 -121.8376 176° South  Level FlightAware Approximate
07:16PM 42.3574 -121.8297 176° South  Level FlightAware Approximate
07:17PM 42.2735 -121.8218 176° South  Level FlightAware Approximate
07:18PM 42.1895 -121.8139 176° South  Level FlightAware Approximate
07:19PM 42.1055 -121.8061 176° South  Level FlightAware Approximate
07:20PM 42.0215 -121.7983 176° South  Level FlightAware Approximate
07:21PM 41.9375 -121.7905 176° South  Level FlightAware Approximate
07:22PM 41.8535 -121.7827 176° South  Level FlightAware Approximate
07:23PM 41.7695 -121.7749 176° South  Level FlightAware Approximate
07:24PM 41.6855 -121.7671 176° South  Level FlightAware Approximate
07:25PM 41.6014 -121.7620 180° South  Level Estimated
07:26PM 41.5172 -121.7586 178° South  Level FlightAware Approximate
07:27PM 41.4331 -121.7553 178° South  Level FlightAware Approximate
07:28PM 41.3489 -121.7520 178° South  Level FlightAware Approximate
07:29PM 41.2647 -121.7487 178° South  Level FlightAware Approximate
07:30PM 41.1806 -121.7455 178° South  Level FlightAware Approximate
07:31PM 41.0964 -121.7422 178° South  Level FlightAware Approximate
07:32PM 41.0123 -121.7389 178° South  Level FlightAware Approximate
07:33PM 40.9282 -121.7334 171° South  Level Estimated
07:34PM 40.8441 -121.7278 180° South  Level Estimated
07:35PM 40.7600 -121.7223 174° South  Level Estimated
07:36PM 40.6759 -121.7173 177° South  Level FlightAware Approximate
07:37PM 40.5918 -121.7117 175° South  Level Estimated
07:38PM 40.5077 -121.7058 177° South  Level FlightAware Approximate
07:39PM 40.4236 -121.7003 176° South  Level Estimated
07:40PM 40.3436 -121.7000 180° South  Level FlightAware Approximate
07:41PM 40.2741 -121.7000 180° South  Level FlightAware Approximate
07:42PM 40.1942 -121.6968 174° South  Level FlightAware Approximate
07:43PM 40.1146 -121.6854 174° South  Level FlightAware Approximate
07:44PM 40.0348 -121.6761 175° South  Level FlightAware Approximate
07:45PM 39.9550 -121.6672 175° South  Level FlightAware Approximate
07:46PM 39.8750 -121.6633 176° South  Level FlightAware Approximate
07:47PM 39.7951 -121.6569 176° South  Level FlightAware Approximate
07:48PM 39.7152 -121.6505 176° South  Level FlightAware Approximate
07:49PM 39.6352 -121.6441 176° South  Level FlightAware Approximate
07:50PM 39.5553 -121.6377 176° South  Level FlightAware Approximate
07:51PM 39.4753 -121.6325 176° South  Level FlightAware Approximate
07:52PM 39.3955 -121.6245 176° South  Level FlightAware Approximate
07:53PM 39.3157 -121.6167 180° South  Level FlightAware Approximate
07:54PM 39.2356 -121.6167 180° South  Level FlightAware Approximate
07:55PM 39.1558 -121.6070 174° South  Level FlightAware Approximate
07:56PM 39.0703 -121.5957 174° South  Level FlightAware Approximate
07:57PM 38.9847 -121.5835 174° South  Level FlightAware Approximate
07:58PM 38.8987 -121.5833 180° South  Level FlightAware Approximate
07:59PM 38.8127 -121.5833 180° South  Level FlightAware Approximate
08:00PM 38.7267 -121.5833 180° South  Level FlightAware Approximate
08:01PM 38.6954 -121.5908 180° South  Level Estimated
08:02PM 38.6954 -121.5908 180° South  Level Estimated
08:03PM 38.6954 -121.5908 180° South  Level Estimated
08:04PM 38.6954 -121.5908 180° South  Level Estimated
08:05PM 38.6954 -121.5908 180° South  Level Estimated
08:06PM 38.6954 -121.5908 180° South  Level Estimated
08:07PM 38.6954 -121.5908 180° South  Level Estimated
08:08PM 38.6954 -121.5908 180° South  Level Estimated
08:09PM 38.6954 -121.5908 180° South  Level Estimated